createdAt,value
2018-09-09T00:01:20.288Z,5.23
2018-09-09T00:06:24.126Z,7.20
2018-09-09T00:11:27.736Z,5.33
2018-09-09T00:16:31.036Z,5.33
2018-09-09T00:21:34.702Z,6.57
2018-09-09T00:26:38.525Z,5.73
2018-09-09T00:31:42.144Z,6.40
2018-09-09T00:36:46.163Z,6.70
2018-09-09T00:41:49.861Z,6.20
2018-09-09T00:46:53.225Z,7.30
2018-09-09T00:52:01.995Z,6.00
2018-09-09T00:57:06.075Z,6.97
2018-09-09T01:02:09.753Z,4.40
2018-09-09T01:07:13.361Z,6.97
2018-09-09T01:12:18.086Z,6.20
2018-09-09T01:17:21.667Z,5.30
2018-09-09T01:22:25.557Z,5.60
2018-09-09T01:27:28.904Z,5.40
2018-09-09T01:32:34.874Z,5.63
2018-09-09T01:37:38.673Z,7.90
2018-09-09T01:42:42.013Z,8.10
2018-09-09T01:47:46.201Z,7.63
2018-09-09T01:52:50.034Z,5.27
2018-09-09T01:57:53.913Z,10.13
2018-09-09T02:02:57.423Z,6.10
2018-09-09T02:08:00.925Z,8.10
2018-09-09T02:13:04.764Z,7.27
2018-09-09T02:18:09.413Z,8.83
2018-09-09T02:23:13.989Z,6.80
2018-09-09T02:28:18.842Z,8.97
2018-09-09T02:33:22.771Z,7.10
2018-09-09T02:38:27.818Z,5.30
2018-09-09T02:43:32.047Z,6.23
2018-09-09T02:48:36.565Z,5.27
2018-09-09T02:53:40.525Z,5.40
2018-09-09T02:58:44.016Z,5.70
2018-09-09T03:03:47.697Z,5.93
2018-09-09T03:08:51.235Z,7.63
2018-09-09T03:13:55.020Z,7.20
2018-09-09T03:18:58.636Z,7.47
2018-09-09T03:24:02.940Z,7.93
2018-09-09T03:29:06.880Z,6.50
2018-09-09T03:34:10.549Z,6.70
2018-09-09T03:39:14.449Z,9.40
2018-09-09T03:44:17.788Z,11.13
2018-09-09T03:49:21.316Z,8.20
2018-09-09T03:54:25.432Z,7.63
2018-09-09T03:59:29.623Z,7.00
2018-09-09T04:04:34.099Z,8.20
2018-09-09T04:09:37.868Z,7.97
2018-09-09T04:14:41.365Z,10.23
2018-09-09T04:19:44.818Z,9.43
2018-09-09T04:24:49.291Z,8.53
2018-09-09T04:29:53.161Z,7.30
2018-09-09T04:34:56.953Z,7.77
2018-09-09T04:40:00.518Z,10.47
2018-09-09T04:45:04.084Z,6.93
2018-09-09T04:50:07.497Z,10.00
2018-09-09T04:55:13.816Z,7.23
2018-09-09T05:00:17.661Z,8.20
2018-09-09T05:05:21.003Z,13.33
2018-09-09T05:10:28.103Z,9.87
2018-09-09T05:15:31.449Z,11.97
2018-09-09T05:20:34.845Z,9.90
2018-09-09T05:25:43.945Z,8.90
2018-09-09T05:30:47.929Z,15.37
2018-09-09T05:35:51.791Z,13.50
2018-09-09T05:41:03.662Z,13.27
2018-09-09T05:46:07.026Z,7.13
2018-09-09T05:51:10.662Z,11.57
2018-09-09T05:56:14.009Z,14.30
2018-09-09T06:01:19.626Z,11.63
2018-09-09T06:06:26.069Z,8.10
2018-09-09T06:11:44.777Z,13.90
2018-09-09T06:16:48.393Z,13.73
2018-09-09T06:21:51.947Z,13.73
2018-09-09T06:27:00.672Z,16.43
2018-09-09T06:32:04.492Z,12.67
2018-09-09T06:37:10.649Z,19.30
2018-09-09T06:42:15.449Z,16.97
2018-09-09T06:47:19.790Z,10.03
2018-09-09T06:52:23.972Z,6.80
2018-09-09T06:57:27.363Z,16.13
2018-09-09T07:02:30.782Z,16.37
2018-09-09T07:07:34.156Z,11.37
2018-09-09T07:12:37.953Z,16.90
2018-09-09T07:17:41.269Z,23.53
2018-09-09T07:22:44.673Z,22.23
2018-09-09T07:27:48.439Z,17.47
2018-09-09T07:32:54.744Z,20.67
2018-09-09T07:37:59.760Z,17.70
2018-09-09T07:43:06.438Z,25.67
2018-09-09T07:48:10.071Z,19.00
2018-09-09T07:53:13.538Z,25.97
2018-09-09T07:58:16.885Z,27.73
2018-09-09T08:03:20.212Z,24.67
2018-09-09T08:08:23.874Z,28.33
2018-09-09T08:13:31.805Z,23.83
2018-09-09T08:18:35.765Z,25.33
2018-09-09T08:23:50.181Z,20.47
2018-09-09T08:28:54.105Z,23.40
2018-09-09T08:34:01.694Z,20.90
2018-09-09T08:39:07.973Z,21.10
2018-09-09T08:44:11.839Z,22.83
2018-09-09T08:49:17.086Z,29.77
2018-09-09T08:54:20.600Z,19.13
2018-09-09T08:59:29.167Z,17.90
2018-09-09T09:04:33.565Z,21.77
2018-09-09T09:09:36.974Z,22.57
2018-09-09T09:14:42.515Z,23.23
2018-09-09T09:19:47.151Z,26.00
2018-09-09T09:24:50.618Z,23.30
2018-09-09T09:29:57.355Z,21.03
2018-09-09T09:35:05.498Z,18.63
2018-09-09T09:40:14.602Z,16.70
2018-09-09T09:45:18.448Z,15.40
2018-09-09T09:50:21.802Z,13.60
2018-09-09T09:55:27.962Z,13.17
2018-09-09T10:00:41.586Z,10.03
2018-09-09T10:05:45.258Z,7.40
2018-09-09T10:10:49.190Z,7.63
2018-09-09T10:15:52.714Z,6.37
2018-09-09T10:20:56.112Z,8.10
2018-09-09T10:25:59.779Z,5.07
2018-09-09T10:31:11.407Z,7.53
2018-09-09T10:36:17.525Z,6.67
2018-09-09T10:41:27.227Z,5.77
2018-09-09T10:46:36.626Z,5.60
2018-09-09T10:51:41.792Z,7.37
2018-09-09T10:56:47.070Z,6.53
2018-09-09T11:01:50.996Z,6.90
2018-09-09T11:07:04.444Z,6.57
2018-09-09T11:12:08.883Z,5.27
2018-09-09T11:17:12.457Z,5.23
2018-09-09T11:22:19.808Z,4.93
2018-09-09T11:27:23.791Z,5.47
2018-09-09T11:32:27.550Z,4.00
2018-09-09T11:37:30.953Z,5.20
2018-09-09T11:42:35.324Z,4.07
2018-09-09T11:47:50.139Z,3.50
2018-09-09T11:52:56.837Z,3.83
2018-09-09T11:58:01.047Z,4.17
2018-09-09T12:03:06.351Z,4.20
2018-09-09T12:08:18.300Z,4.47
2018-09-09T12:13:22.305Z,3.83
2018-09-09T12:18:26.310Z,4.03
2018-09-09T12:23:29.852Z,3.90
2018-09-09T12:28:33.653Z,3.07
2018-09-09T12:33:37.093Z,3.90
2018-09-09T12:38:40.714Z,3.40
2018-09-09T12:43:50.873Z,3.27
2018-09-09T12:49:01.577Z,3.80
2018-09-09T12:54:05.047Z,4.37
2018-09-09T12:59:08.965Z,3.80
2018-09-09T13:04:14.178Z,2.50
2018-09-09T13:09:17.913Z,3.10
2018-09-09T13:14:24.925Z,3.27
2018-09-09T13:19:28.854Z,3.53
2018-09-09T13:24:38.525Z,2.53
2018-09-09T13:29:49.569Z,3.70
2018-09-09T13:34:54.681Z,2.70
2018-09-09T13:39:58.078Z,2.33
2018-09-09T13:45:01.491Z,2.60
2018-09-09T13:50:05.469Z,2.60
2018-09-09T13:55:09.053Z,2.57
2018-09-09T14:00:12.699Z,2.70
2018-09-09T14:05:16.617Z,3.00
2018-09-09T14:10:20.323Z,3.10
2018-09-09T14:15:23.712Z,2.20
2018-09-09T14:20:27.388Z,2.50
2018-09-09T14:25:31.775Z,1.87
2018-09-09T14:30:35.230Z,2.30
2018-09-09T14:35:39.177Z,2.30
2018-09-09T14:40:42.778Z,2.13
2018-09-09T14:45:46.160Z,2.00
2018-09-09T14:50:49.814Z,1.50
2018-09-09T14:55:53.245Z,1.77
2018-09-09T15:00:56.769Z,2.57
2018-09-09T15:06:00.404Z,1.83
2018-09-09T15:11:04.294Z,2.17
2018-09-09T15:16:08.009Z,1.90
2018-09-09T15:21:16.261Z,2.40
2018-09-09T15:26:19.653Z,2.00
2018-09-09T15:31:23.130Z,2.53
2018-09-09T15:36:26.920Z,3.23
2018-09-09T15:41:30.796Z,3.33
2018-09-09T15:46:34.621Z,3.60
2018-09-09T15:51:38.350Z,2.00
2018-09-09T15:56:41.909Z,4.20
2018-09-09T16:01:45.470Z,3.30
2018-09-09T16:06:48.919Z,4.23
2018-09-09T16:11:53.104Z,5.60
2018-09-09T16:16:57.274Z,2.57
2018-09-09T16:22:04.105Z,2.77
2018-09-09T16:27:07.814Z,4.87
2018-09-09T16:32:20.392Z,8.43
2018-09-09T16:37:24.709Z,3.00
2018-09-09T16:42:28.468Z,2.87
2018-09-09T16:47:32.309Z,3.47
2018-09-09T16:52:35.846Z,2.57
2018-09-09T16:57:42.181Z,3.37
2018-09-09T17:02:45.907Z,3.47
2018-09-09T17:07:49.368Z,3.60
2018-09-09T17:12:56.458Z,3.17
2018-09-09T17:18:01.675Z,3.50
2018-09-09T17:23:09.353Z,2.70
2018-09-09T17:28:23.377Z,2.87
2018-09-09T17:33:31.968Z,2.37
2018-09-09T17:38:36.056Z,2.53
2018-09-09T17:43:39.761Z,2.87
2018-09-09T17:48:43.137Z,3.13
2018-09-09T17:53:47.440Z,4.00
2018-09-09T17:58:51.866Z,2.90
2018-09-09T18:03:55.935Z,2.93
2018-09-09T18:09:00.846Z,3.07
2018-09-09T18:14:04.922Z,3.57
2018-09-09T18:19:09.069Z,3.40
2018-09-09T18:24:20.939Z,3.70
2018-09-09T18:29:27.409Z,3.23
2018-09-09T18:34:31.762Z,2.83
2018-09-09T18:39:35.383Z,4.07
2018-09-09T18:44:39.199Z,3.00
2018-09-09T18:49:42.647Z,3.27
2018-09-09T18:54:46.330Z,3.97
2018-09-09T18:59:50.289Z,3.13
2018-09-09T19:04:53.826Z,3.67
2018-09-09T19:09:57.430Z,3.40
2018-09-09T19:15:02.313Z,4.33
2018-09-09T19:20:06.007Z,3.77
2018-09-09T19:25:10.194Z,3.00
2018-09-09T19:30:14.190Z,3.40
2018-09-09T19:35:19.719Z,3.90
2018-09-09T19:40:23.736Z,4.97
2018-09-09T19:45:27.314Z,3.53
2018-09-09T19:50:30.778Z,4.33
2018-09-09T19:55:34.406Z,3.43
2018-09-09T20:00:38.383Z,3.50
2018-09-09T20:05:42.266Z,4.33
2018-09-09T20:10:45.711Z,4.97
2018-09-09T20:15:52.828Z,3.43
2018-09-09T20:20:56.734Z,4.23
2018-09-09T20:26:00.113Z,4.27
2018-09-09T20:31:03.763Z,4.87
2018-09-09T20:36:07.472Z,7.10
2018-09-09T20:41:11.529Z,9.03
2018-09-09T20:46:15.448Z,7.10
2018-09-09T20:51:18.958Z,6.83
2018-09-09T20:56:24.099Z,6.03
2018-09-09T21:01:27.540Z,5.00
2018-09-09T21:06:31.498Z,6.00
2018-09-09T21:11:34.979Z,5.70
2018-09-09T21:16:38.860Z,6.30
2018-09-09T21:21:42.498Z,7.10
2018-09-09T21:26:46.492Z,6.80
2018-09-09T21:31:50.197Z,6.50
2018-09-09T21:36:54.066Z,8.83
2018-09-09T21:41:59.594Z,6.47
2018-09-09T21:47:03.331Z,7.53
2018-09-09T21:52:07.069Z,7.00
2018-09-09T21:57:10.547Z,6.20
2018-09-09T22:02:14.522Z,6.90
2018-09-09T22:07:18.149Z,8.50
2018-09-09T22:12:22.387Z,7.63
2018-09-09T22:17:26.198Z,5.33
2018-09-09T22:22:29.746Z,7.50
2018-09-09T22:27:33.752Z,6.00
2018-09-09T22:32:37.064Z,7.40
2018-09-09T22:37:40.714Z,6.97
2018-09-09T22:42:45.038Z,7.43
2018-09-09T22:47:48.625Z,6.20
2018-09-09T22:52:53.003Z,6.77
2018-09-09T22:57:56.729Z,7.20
2018-09-09T23:03:00.142Z,6.60
2018-09-09T23:08:03.615Z,5.27
2018-09-09T23:13:07.721Z,6.03
2018-09-09T23:18:11.281Z,6.47
2018-09-09T23:23:14.933Z,6.17
2018-09-09T23:28:19.130Z,5.47
2018-09-09T23:33:22.618Z,5.40
2018-09-09T23:38:26.232Z,5.40
2018-09-09T23:43:30.235Z,5.03
2018-09-09T23:48:34.090Z,5.17
2018-09-09T23:53:37.788Z,6.27
2018-09-09T23:58:41.832Z,7.47
